sensor_id;sensor_type;location;lat;lon;timestamp;P1;durP1;ratioP1;P2;durP2;ratioP2
85314;SDS011;75718;50.886;11.656;2024-02-15T00:01:20;5.03;;;2.17;;
85314;SDS011;75718;50.886;11.656;2024-02-15T00:03:45;3.13;;;1.53;;
85314;SDS011;75718;50.886;11.656;2024-02-15T00:06:11;2.07;;;1.50;;
85314;SDS011;75718;50.886;11.656;2024-02-15T00:08:37;2.13;;;1.77;;
85314;SDS011;75718;50.886;11.656;2024-02-15T00:11:02;3.33;;;1.93;;
85314;SDS011;75718;50.886;11.656;2024-02-15T00:13:27;2.63;;;1.90;;
85314;SDS011;75718;50.886;11.656;2024-02-15T00:15:53;5.40;;;2.70;;
85314;SDS011;75718;50.886;11.656;2024-02-15T00:18:18;4.47;;;2.13;;
85314;SDS011;75718;50.886;11.656;2024-02-15T00:20:43;2.93;;;2.00;;
85314;SDS011;75718;50.886;11.656;2024-02-15T00:23:09;4.30;;;2.53;;
85314;SDS011;75718;50.886;11.656;2024-02-15T00:25:34;4.78;;;2.17;;
85314;SDS011;75718;50.886;11.656;2024-02-15T00:28:00;4.30;;;2.22;;
85314;SDS011;75718;50.886;11.656;2024-02-15T00:30:26;2.92;;;1.77;;
85314;SDS011;75718;50.886;11.656;2024-02-15T00:32:52;3.80;;;1.67;;
85314;SDS011;75718;50.886;11.656;2024-02-15T00:35:17;2.33;;;1.65;;
85314;SDS011;75718;50.886;11.656;2024-02-15T00:37:43;2.33;;;1.38;;
85314;SDS011;75718;50.886;11.656;2024-02-15T00:40:09;2.00;;;1.25;;
85314;SDS011;75718;50.886;11.656;2024-02-15T00:42:35;3.92;;;1.60;;
85314;SDS011;75718;50.886;11.656;2024-02-15T00:45:00;3.65;;;1.48;;
85314;SDS011;75718;50.886;11.656;2024-02-15T00:47:26;2.20;;;1.20;;
85314;SDS011;75718;50.886;11.656;2024-02-15T00:49:53;3.42;;;1.50;;
85314;SDS011;75718;50.886;11.656;2024-02-15T00:52:18;2.35;;;1.23;;
85314;SDS011;75718;50.886;11.656;2024-02-15T00:54:44;3.47;;;1.53;;
85314;SDS011;75718;50.886;11.656;2024-02-15T00:57:10;2.92;;;1.33;;
85314;SDS011;75718;50.886;11.656;2024-02-15T00:59:35;1.33;;;1.15;;
85314;SDS011;75718;50.886;11.656;2024-02-15T01:02:01;1.63;;;1.30;;
85314;SDS011;75718;50.886;11.656;2024-02-15T01:04:27;1.67;;;1.13;;
85314;SDS011;75718;50.886;11.656;2024-02-15T01:06:52;1.70;;;1.33;;
85314;SDS011;75718;50.886;11.656;2024-02-15T01:09:18;4.85;;;1.25;;
85314;SDS011;75718;50.886;11.656;2024-02-15T01:11:43;2.65;;;1.23;;
85314;SDS011;75718;50.886;11.656;2024-02-15T01:14:08;1.90;;;1.27;;
85314;SDS011;75718;50.886;11.656;2024-02-15T01:16:34;1.92;;;1.40;;
85314;SDS011;75718;50.886;11.656;2024-02-15T01:19:01;1.90;;;1.27;;
85314;SDS011;75718;50.886;11.656;2024-02-15T01:21:26;3.88;;;1.50;;
85314;SDS011;75718;50.886;11.656;2024-02-15T01:23:52;1.67;;;1.27;;
85314;SDS011;75718;50.886;11.656;2024-02-15T01:26:18;2.42;;;1.50;;
85314;SDS011;75718;50.886;11.656;2024-02-15T01:28:43;2.77;;;1.50;;
85314;SDS011;75718;50.886;11.656;2024-02-15T01:31:10;3.97;;;2.03;;
85314;SDS011;75718;50.886;11.656;2024-02-15T01:33:36;1.98;;;1.40;;
85314;SDS011;75718;50.886;11.656;2024-02-15T01:36:03;3.30;;;1.90;;
85314;SDS011;75718;50.886;11.656;2024-02-15T01:38:29;2.88;;;2.00;;
85314;SDS011;75718;50.886;11.656;2024-02-15T01:40:54;2.00;;;1.40;;
85314;SDS011;75718;50.886;11.656;2024-02-15T01:43:19;2.13;;;1.50;;
85314;SDS011;75718;50.886;11.656;2024-02-15T01:45:45;3.10;;;1.80;;
85314;SDS011;75718;50.886;11.656;2024-02-15T01:48:11;2.78;;;1.73;;
85314;SDS011;75718;50.886;11.656;2024-02-15T01:50:38;3.38;;;1.90;;
85314;SDS011;75718;50.886;11.656;2024-02-15T01:53:04;4.68;;;2.17;;
85314;SDS011;75718;50.886;11.656;2024-02-15T01:55:32;3.53;;;2.17;;
85314;SDS011;75718;50.886;11.656;2024-02-15T01:57:58;2.63;;;1.35;;
85314;SDS011;75718;50.886;11.656;2024-02-15T02:00:24;1.58;;;1.23;;
85314;SDS011;75718;50.886;11.656;2024-02-15T02:02:49;2.33;;;1.67;;
85314;SDS011;75718;50.886;11.656;2024-02-15T02:05:16;3.20;;;1.60;;
85314;SDS011;75718;50.886;11.656;2024-02-15T02:07:42;1.60;;;1.30;;
85314;SDS011;75718;50.886;11.656;2024-02-15T02:10:07;2.58;;;1.60;;
85314;SDS011;75718;50.886;11.656;2024-02-15T02:12:34;4.35;;;1.70;;
85314;SDS011;75718;50.886;11.656;2024-02-15T02:14:59;2.65;;;1.25;;
85314;SDS011;75718;50.886;11.656;2024-02-15T02:17:24;2.60;;;1.37;;
85314;SDS011;75718;50.886;11.656;2024-02-15T02:19:50;2.27;;;1.50;;
85314;SDS011;75718;50.886;11.656;2024-02-15T02:22:15;2.70;;;1.53;;
85314;SDS011;75718;50.886;11.656;2024-02-15T02:27:30;2.70;;;1.30;;
85314;SDS011;75718;50.886;11.656;2024-02-15T02:29:57;3.33;;;1.63;;
85314;SDS011;75718;50.886;11.656;2024-02-15T02:32:24;2.35;;;1.55;;
85314;SDS011;75718;50.886;11.656;2024-02-15T02:34:49;2.72;;;1.30;;
85314;SDS011;75718;50.886;11.656;2024-02-15T02:37:15;2.70;;;1.50;;
85314;SDS011;75718;50.886;11.656;2024-02-15T02:39:40;6.43;;;2.10;;
85314;SDS011;75718;50.886;11.656;2024-02-15T02:42:07;3.17;;;1.85;;
85314;SDS011;75718;50.886;11.656;2024-02-15T02:44:33;2.53;;;2.10;;
85314;SDS011;75718;50.886;11.656;2024-02-15T02:46:58;1.93;;;1.50;;
85314;SDS011;75718;50.886;11.656;2024-02-15T02:49:23;1.90;;;1.20;;
85314;SDS011;75718;50.886;11.656;2024-02-15T02:51:48;2.95;;;1.30;;
85314;SDS011;75718;50.886;11.656;2024-02-15T02:54:14;3.53;;;1.58;;
85314;SDS011;75718;50.886;11.656;2024-02-15T02:56:40;2.67;;;1.35;;
85314;SDS011;75718;50.886;11.656;2024-02-15T02:59:05;3.45;;;1.73;;
85314;SDS011;75718;50.886;11.656;2024-02-15T03:01:32;3.72;;;1.60;;
85314;SDS011;75718;50.886;11.656;2024-02-15T03:03:57;2.37;;;1.80;;
85314;SDS011;75718;50.886;11.656;2024-02-15T03:06:22;1.52;;;1.25;;
85314;SDS011;75718;50.886;11.656;2024-02-15T03:08:49;2.90;;;1.45;;
85314;SDS011;75718;50.886;11.656;2024-02-15T03:11:16;3.25;;;1.65;;
85314;SDS011;75718;50.886;11.656;2024-02-15T03:13:42;3.20;;;1.50;;
85314;SDS011;75718;50.886;11.656;2024-02-15T03:16:09;2.95;;;1.77;;
85314;SDS011;75718;50.886;11.656;2024-02-15T03:18:34;4.87;;;1.87;;
85314;SDS011;75718;50.886;11.656;2024-02-15T03:21:00;3.30;;;1.63;;
85314;SDS011;75718;50.886;11.656;2024-02-15T03:23:25;5.23;;;2.40;;
85314;SDS011;75718;50.886;11.656;2024-02-15T03:25:50;5.13;;;2.10;;
85314;SDS011;75718;50.886;11.656;2024-02-15T03:28:16;4.82;;;2.20;;
85314;SDS011;75718;50.886;11.656;2024-02-15T03:30:41;3.20;;;2.00;;
85314;SDS011;75718;50.886;11.656;2024-02-15T03:33:07;3.85;;;1.90;;
85314;SDS011;75718;50.886;11.656;2024-02-15T03:35:33;2.25;;;1.52;;
85314;SDS011;75718;50.886;11.656;2024-02-15T03:37:59;4.05;;;1.90;;
85314;SDS011;75718;50.886;11.656;2024-02-15T03:40:24;2.83;;;1.70;;
85314;SDS011;75718;50.886;11.656;2024-02-15T03:42:51;3.10;;;2.00;;
85314;SDS011;75718;50.886;11.656;2024-02-15T03:45:17;3.38;;;1.83;;
85314;SDS011;75718;50.886;11.656;2024-02-15T03:47:42;3.75;;;1.70;;
85314;SDS011;75718;50.886;11.656;2024-02-15T03:50:08;4.93;;;1.90;;
85314;SDS011;75718;50.886;11.656;2024-02-15T03:52:37;2.40;;;1.80;;
85314;SDS011;75718;50.886;11.656;2024-02-15T03:55:03;3.30;;;1.85;;
85314;SDS011;75718;50.886;11.656;2024-02-15T03:57:29;3.42;;;1.80;;
85314;SDS011;75718;50.886;11.656;2024-02-15T03:59:54;2.73;;;1.60;;
85314;SDS011;75718;50.886;11.656;2024-02-15T04:02:21;2.78;;;1.30;;
85314;SDS011;75718;50.886;11.656;2024-02-15T04:04:48;1.92;;;1.33;;
85314;SDS011;75718;50.886;11.656;2024-02-15T04:07:17;1.98;;;1.10;;
85314;SDS011;75718;50.886;11.656;2024-02-15T04:09:43;1.40;;;1.20;;
85314;SDS011;75718;50.886;11.656;2024-02-15T04:12:09;1.80;;;1.10;;
85314;SDS011;75718;50.886;11.656;2024-02-15T04:14:34;1.70;;;1.20;;
85314;SDS011;75718;50.886;11.656;2024-02-15T04:17:00;1.83;;;1.27;;
85314;SDS011;75718;50.886;11.656;2024-02-15T04:19:26;2.75;;;1.70;;
85314;SDS011;75718;50.886;11.656;2024-02-15T04:21:52;2.30;;;2.03;;
85314;SDS011;75718;50.886;11.656;2024-02-15T04:24:17;6.27;;;2.37;;
85314;SDS011;75718;50.886;11.656;2024-02-15T04:26:42;5.47;;;2.30;;
85314;SDS011;75718;50.886;11.656;2024-02-15T04:29:08;5.10;;;1.93;;
85314;SDS011;75718;50.886;11.656;2024-02-15T04:31:34;1.83;;;0.85;;
85314;SDS011;75718;50.886;11.656;2024-02-15T04:34:01;1.20;;;0.80;;
85314;SDS011;75718;50.886;11.656;2024-02-15T04:36:28;1.88;;;1.00;;
85314;SDS011;75718;50.886;11.656;2024-02-15T04:38:58;1.73;;;1.08;;
85314;SDS011;75718;50.886;11.656;2024-02-15T04:41:24;1.70;;;0.90;;
85314;SDS011;75718;50.886;11.656;2024-02-15T04:43:49;2.03;;;1.00;;
85314;SDS011;75718;50.886;11.656;2024-02-15T04:46:15;1.10;;;1.00;;
85314;SDS011;75718;50.886;11.656;2024-02-15T04:48:43;1.80;;;1.20;;
85314;SDS011;75718;50.886;11.656;2024-02-15T04:51:09;2.22;;;1.00;;
85314;SDS011;75718;50.886;11.656;2024-02-15T04:53:38;1.58;;;1.10;;
85314;SDS011;75718;50.886;11.656;2024-02-15T04:56:05;1.20;;;0.80;;
